Welcome to our new website - Welkom op onze vernieuwde website - Bienvenue sur notre nouveau site web - Willkommen auf unserer neuen Website
Check our progress frequently. Prüfen Sie unsere Fortschritte regelmäßig. Consultez notre progression fréquemment. Komt u straks nog eens terug


Bezoek onze andere website:

Template documentation
and downloads

And another site



METAR rapporten vliegvelden

   
EBBR - Brussels International Airport, Belgium
Afstand tot: W 14 km
Gewijzigd: Feb 26 2018 4:20 am
Helder  
Helder  
   Wind: ONO 15 km/h
Wind: ONO 15 km/h
Temperatuur: -5°C
Voelt als: -11°C
Dauwpunt: -9°C
Vochtigheid: 74%
Barometer: 1029 hPa
Zicht: meer dan 10 km
Bewolking: Helder
EBBR 260320Z 06008KT CAVOK M05/M09 Q1029 NOSIG
EBBE - Beauvechain (Bevekom), Belgium
Afstand tot: ZZO 17 km
Gewijzigd: Feb 26 2018 3:55 am
Helder  
Helder  
   Wind: NO 19 km/h
Wind: NO 19 km/h
Temperatuur: -6°C
Voelt als: -13°C
Dauwpunt: -11°C
Vochtigheid: 68%
Barometer: 1028 hPa
Bewolking: Helder
Zicht: meer dan 10 km
Bewolking: Helder
EBBE 260255Z AUTO 05010KT 9999 NCD M06/M11 Q1028 BLU
EBDT - Schaffen, Belgium
Afstand tot: ONO 29 km
Gewijzigd: Feb 26 2018 3:55 am
Helder  
Helder  
   Wind: NO 17 km/h
Wind: NO 17 km/h
Temperatuur: -5°C
Voelt als: -11°C
Dauwpunt: -9°C
Vochtigheid: 74%
Barometer: 1029 hPa
Bewolking: Helder
Zicht: meer dan 10 km
Bewolking: Helder
EBDT 260255Z AUTO 05009KT 9999 NCD M05/M09 Q1029 BLU
EBAW - Antwerp/Deurne, Belgium
Afstand tot: NNW 38 km
Gewijzigd: Feb 26 2018 3:50 am
Helder  
Helder  
   Wind: ONO 19 km/h
Wind: ONO 19 km/h
Temperatuur: -4°C
Voelt als: -10°C
Dauwpunt: -8°C
Vochtigheid: 74%
Barometer: 1030 hPa
Zicht: meer dan 10 km
Bewolking: Helder
EBAW 260250Z AUTO 06010KT CAVOK M04/M08 Q1030
EBCI - Charleroi/Gosselies, Belgium
Afstand tot: ZZW 51 km
Gewijzigd: Feb 26 2018 4:20 am
Helder  
Helder  
   Wind: ONO 24 km/h
Wind: ONO 24 km/h
Temperatuur: -6°C
Voelt als: -13°C
Dauwpunt: -11°C
Vochtigheid: 68%
Barometer: 1027 hPa
Zicht: meer dan 10 km
Bewolking: Helder
EBCI 260320Z 06013KT CAVOK M06/M11 Q1027 NOSIG
EBLG - Bierset/Liege, Belgium
Afstand tot: OZO 60 km
Gewijzigd: Feb 26 2018 3:50 am
Helder  
Helder  
   Wind: NO 20 km/h
Wind: NO 20 km/h
Temperatuur: -6°C
Voelt als: -13°C
Dauwpunt: -11°C
Vochtigheid: 68%
Barometer: 1027 hPa
Zicht: meer dan 10 km
Bewolking: Helder
EBLG 260250Z 05011KT CAVOK M06/M11 Q1027 NOSIG

Script ontwikkeld door  Saratoga-weather.org Aangepast voor de template door  Weerstation Leuven

U vindt ons ook hier:

Het Weer Aktueel

UK Metoffice

European Weather Network

WeatherCloud

Weather Underground

AWEKAS

Apparatuur in gebruik:

Weerstation
Davis VP2

Weerprogramma
Meteobridge

Weercomputer
Tl-mr3020

Webleverancier
VIP Internet

Davis VP2

Meteobridge

Tl-mr3020

VIP Internet